createdAt,value
2023-05-21T00:04:07.956Z,99.90
2023-05-21T00:09:12.919Z,99.90
2023-05-21T00:14:15.781Z,99.90
2023-05-21T00:19:18.390Z,99.90
2023-05-21T00:24:20.916Z,99.90
2023-05-21T00:29:23.664Z,99.90
2023-05-21T00:34:28.859Z,99.90
2023-05-21T00:39:31.461Z,99.90
2023-05-21T00:44:34.489Z,99.90
2023-05-21T00:49:37.160Z,99.90
2023-05-21T00:54:39.789Z,99.90
2023-05-21T00:59:45.400Z,99.90
2023-05-21T01:04:48.041Z,99.90
2023-05-21T01:09:50.494Z,99.90
2023-05-21T01:14:53.507Z,99.90
2023-05-21T01:19:58.262Z,99.90
2023-05-21T01:25:02.990Z,99.90
2023-05-21T01:30:06.580Z,99.90
2023-05-21T01:35:14.620Z,99.90
2023-05-21T01:40:29.830Z,99.90
2023-05-21T01:45:33.442Z,99.90
2023-05-21T01:50:37.415Z,99.90
2023-05-21T01:55:42.034Z,99.90
2023-05-21T02:00:45.645Z,99.90
2023-05-21T02:05:48.434Z,99.90
2023-05-21T02:10:51.561Z,99.90
2023-05-21T02:15:54.977Z,99.90
2023-05-21T02:20:59.264Z,99.90
2023-05-21T02:26:01.917Z,99.90
2023-05-21T02:31:04.666Z,99.90
2023-05-21T02:36:13.019Z,99.90
2023-05-21T02:41:16.024Z,99.90
2023-05-21T02:46:18.812Z,99.90
2023-05-21T02:51:21.387Z,99.90
2023-05-21T02:56:24.903Z,99.90
2023-05-21T03:01:27.390Z,99.90
2023-05-21T03:06:30.054Z,99.90
2023-05-21T03:11:32.617Z,99.90
2023-05-21T03:16:35.497Z,99.90
2023-05-21T03:21:38.286Z,99.90
2023-05-21T03:26:41.456Z,99.90
2023-05-21T03:31:44.020Z,99.90
2023-05-21T03:36:48.659Z,99.90
2023-05-21T03:41:53.593Z,99.90
2023-05-21T03:47:04.029Z,99.90
2023-05-21T03:52:09.940Z,99.90
2023-05-21T03:57:12.869Z,99.90
2023-05-21T04:02:16.275Z,99.90
2023-05-21T04:07:22.402Z,99.90
2023-05-21T04:12:25.169Z,99.90
2023-05-21T04:17:28.640Z,99.90
2023-05-21T04:22:32.045Z,99.90
2023-05-21T04:27:36.487Z,99.90
2023-05-21T04:32:39.616Z,99.90
2023-05-21T04:37:45.948Z,99.90
2023-05-21T04:42:50.865Z,99.90
2023-05-21T04:48:00.464Z,99.90
2023-05-21T04:53:05.066Z,99.90
2023-05-21T04:58:07.695Z,99.90
2023-05-21T05:03:11.573Z,99.90
2023-05-21T05:08:15.981Z,99.90
2023-05-21T05:13:19.096Z,99.90
2023-05-21T05:18:21.762Z,99.90
2023-05-21T05:23:24.342Z,99.90
2023-05-21T05:28:26.927Z,99.90
2023-05-21T05:33:29.965Z,99.90
2023-05-21T05:38:32.548Z,99.90
2023-05-21T05:43:35.243Z,99.90
2023-05-21T05:48:37.802Z,99.90
2023-05-21T05:53:41.783Z,99.90
2023-05-21T05:58:44.691Z,99.90
2023-05-21T06:03:49.651Z,99.90
2023-05-21T06:08:54.562Z,99.90
2023-05-21T06:13:57.434Z,99.90
2023-05-21T06:19:00.208Z,99.90
2023-05-21T06:24:02.939Z,99.90
2023-05-21T06:29:06.061Z,99.90
2023-05-21T06:34:08.700Z,99.90
2023-05-21T06:39:11.351Z,98.40
2023-05-21T06:44:15.734Z,98.30
2023-05-21T06:49:44.440Z,97.40
2023-05-21T06:54:46.963Z,97.30
2023-05-21T06:59:50.973Z,96.30
2023-05-21T07:04:53.860Z,96.00
2023-05-21T07:09:56.396Z,95.30
2023-05-21T07:14:59.412Z,93.10
2023-05-21T07:20:08.008Z,93.20
2023-05-21T07:25:12.469Z,92.80
2023-05-21T07:30:15.354Z,91.80
2023-05-21T07:40:21.255Z,90.40
2023-05-21T07:45:24.253Z,84.20
2023-05-21T07:50:27.014Z,87.50
2023-05-21T07:55:31.906Z,82.90
2023-05-21T08:00:44.983Z,82.00
2023-05-21T08:05:49.210Z,80.20
2023-05-21T08:10:52.642Z,80.60
2023-05-21T08:15:56.823Z,81.10
2023-05-21T08:21:00.443Z,76.90
2023-05-21T08:26:04.205Z,75.20
2023-05-21T08:31:07.037Z,74.40
2023-05-21T08:36:11.562Z,65.30
2023-05-21T08:41:25.028Z,74.70
2023-05-21T08:46:36.421Z,72.10
2023-05-21T08:51:39.630Z,70.40
2023-05-21T08:56:47.142Z,70.00
2023-05-21T09:01:52.598Z,66.30
2023-05-21T09:07:03.014Z,57.50
2023-05-21T09:12:26.192Z,58.80
2023-05-21T09:17:29.310Z,59.70
2023-05-21T09:22:44.587Z,65.00
2023-05-21T09:27:47.263Z,65.60
2023-05-21T09:32:56.339Z,53.10
2023-05-21T09:37:58.920Z,52.90
2023-05-21T09:43:01.892Z,48.20
2023-05-21T09:48:04.753Z,50.00
2023-05-21T09:53:13.850Z,48.10
2023-05-21T09:58:16.408Z,47.20
2023-05-21T10:03:23.795Z,44.80
2023-05-21T10:08:31.447Z,47.70
2023-05-21T10:13:41.670Z,45.10
2023-05-21T10:18:46.826Z,45.00
2023-05-21T10:23:50.786Z,46.10
2023-05-21T10:28:55.290Z,46.60
2023-05-21T10:33:58.369Z,47.00
2023-05-21T10:39:01.952Z,44.50
2023-05-21T10:44:31.345Z,44.90
2023-05-21T10:49:54.249Z,42.00
2023-05-21T10:55:03.218Z,42.70
2023-05-21T11:00:07.957Z,42.00
2023-05-21T11:05:10.679Z,38.20
2023-05-21T11:10:44.559Z,39.30
2023-05-21T11:15:59.215Z,39.60
2023-05-21T11:21:15.505Z,38.40
2023-05-21T11:26:19.392Z,39.10
2023-05-21T11:31:27.023Z,43.70
2023-05-21T11:36:30.094Z,42.50
2023-05-21T11:41:53.374Z,42.70
2023-05-21T11:46:56.217Z,47.20
2023-05-21T11:52:00.359Z,44.40
2023-05-21T11:57:07.213Z,45.70
2023-05-21T12:02:09.706Z,39.40
2023-05-21T12:07:15.515Z,39.10
2023-05-21T12:12:21.481Z,40.10
2023-05-21T12:17:25.912Z,41.10
2023-05-21T12:22:29.875Z,34.30
2023-05-21T12:27:33.519Z,41.90
2023-05-21T12:32:44.452Z,36.60
2023-05-21T12:37:47.222Z,34.70
2023-05-21T12:42:50.266Z,33.40
2023-05-21T12:47:56.507Z,35.50
2023-05-21T12:52:59.375Z,32.30
2023-05-21T12:58:04.662Z,32.90
2023-05-21T13:03:07.618Z,35.40
2023-05-21T13:08:11.346Z,35.10
2023-05-21T13:13:13.898Z,36.20
2023-05-21T13:18:16.613Z,33.90
2023-05-21T13:23:19.160Z,35.80
2023-05-21T13:28:22.105Z,38.00
2023-05-21T13:33:24.857Z,35.90
2023-05-21T13:38:27.567Z,39.70
2023-05-21T13:43:30.213Z,38.20
2023-05-21T13:48:32.810Z,38.40
2023-05-21T13:53:35.491Z,37.10
2023-05-21T13:58:40.600Z,36.80
2023-05-21T14:03:43.077Z,36.90
2023-05-21T14:08:45.810Z,36.60
2023-05-21T14:13:48.457Z,35.30
2023-05-21T14:18:51.309Z,37.80
2023-05-21T14:23:53.832Z,38.10
2023-05-21T14:28:56.545Z,35.90
2023-05-21T14:33:59.164Z,38.90
2023-05-21T14:39:01.861Z,37.40
2023-05-21T14:44:07.722Z,37.80
2023-05-21T14:49:11.887Z,35.90
2023-05-21T14:54:14.735Z,36.60
2023-05-21T14:59:17.300Z,34.60
2023-05-21T15:04:19.819Z,36.20
2023-05-21T15:09:22.444Z,36.50
2023-05-21T15:14:25.039Z,35.90
2023-05-21T15:19:27.490Z,35.40
2023-05-21T15:24:30.312Z,35.80
2023-05-21T15:29:32.865Z,31.90
2023-05-21T15:34:35.615Z,36.20
2023-05-21T15:39:38.260Z,37.40
2023-05-21T15:44:41.294Z,31.20
2023-05-21T15:49:43.929Z,37.20
2023-05-21T15:54:47.070Z,36.40
2023-05-21T15:59:50.795Z,34.60
2023-05-21T16:04:53.533Z,34.70
2023-05-21T16:09:56.185Z,34.80
2023-05-21T16:14:58.739Z,38.80
2023-05-21T16:20:01.223Z,33.00
2023-05-21T16:25:03.973Z,38.60
2023-05-21T16:30:07.588Z,34.40
2023-05-21T16:35:10.213Z,34.60
2023-05-21T16:40:13.586Z,31.50
2023-05-21T16:45:20.503Z,30.60
2023-05-21T16:50:22.961Z,34.60
2023-05-21T16:55:25.693Z,31.60
2023-05-21T17:00:28.787Z,36.20
2023-05-21T17:05:31.416Z,39.10
2023-05-21T17:10:34.145Z,37.70
2023-05-21T17:15:37.057Z,41.10
2023-05-21T17:20:39.806Z,36.50
2023-05-21T17:25:42.293Z,39.90
2023-05-21T17:30:46.025Z,42.80
2023-05-21T17:35:49.403Z,42.80
2023-05-21T17:40:51.902Z,40.60
2023-05-21T17:45:54.475Z,36.80
2023-05-21T17:50:57.064Z,37.20
2023-05-21T17:55:59.468Z,38.10
2023-05-21T18:01:02.714Z,41.10
2023-05-21T18:06:07.438Z,42.90
2023-05-21T18:11:11.517Z,42.70
2023-05-21T18:16:14.040Z,44.90
2023-05-21T18:21:16.622Z,49.30
2023-05-21T18:26:20.516Z,48.80
2023-05-21T18:31:23.633Z,49.90
2023-05-21T18:36:26.750Z,50.90
2023-05-21T18:41:29.554Z,53.10
2023-05-21T18:46:32.300Z,54.60
2023-05-21T18:51:34.864Z,59.70
2023-05-21T18:56:37.318Z,62.70
2023-05-21T19:01:40.358Z,68.70
2023-05-21T19:06:43.156Z,72.30
2023-05-21T19:11:45.985Z,74.80
2023-05-21T19:16:48.542Z,74.00
2023-05-21T19:26:55.483Z,83.80
2023-05-21T19:31:59.184Z,90.10
2023-05-21T19:37:01.784Z,91.30
2023-05-21T19:42:04.705Z,92.70
2023-05-21T19:47:07.602Z,93.50
2023-05-21T19:52:10.600Z,94.30
2023-05-21T19:57:13.594Z,97.00
2023-05-21T20:02:17.139Z,97.10
2023-05-21T20:07:19.797Z,97.80
2023-05-21T20:12:22.403Z,98.20
2023-05-21T20:17:24.900Z,99.50
2023-05-21T20:22:28.370Z,99.90
2023-05-21T20:27:30.985Z,99.90
2023-05-21T20:32:33.802Z,99.50
2023-05-21T20:37:36.941Z,99.50
2023-05-21T20:42:40.152Z,99.50
2023-05-21T20:47:43.818Z,99.80
2023-05-21T20:52:47.456Z,99.80
2023-05-21T20:57:50.098Z,99.90
2023-05-21T21:02:52.720Z,99.90
2023-05-21T21:07:56.089Z,99.90
2023-05-21T21:12:58.777Z,99.90
2023-05-21T21:18:01.530Z,99.90
2023-05-21T21:23:04.146Z,99.90
2023-05-21T21:28:06.738Z,99.90
2023-05-21T21:33:09.418Z,99.90
2023-05-21T21:38:12.000Z,99.90
2023-05-21T21:43:14.589Z,99.90
2023-05-21T21:48:17.020Z,99.90
2023-05-21T21:53:19.557Z,99.90
2023-05-21T21:58:22.089Z,99.90
2023-05-21T22:03:24.543Z,99.90
2023-05-21T22:08:28.696Z,99.90
2023-05-21T22:13:31.399Z,99.90
2023-05-21T22:18:40.975Z,99.90
2023-05-21T22:23:44.234Z,99.90
2023-05-21T22:28:46.703Z,99.90
2023-05-21T22:33:49.266Z,99.90
2023-05-21T22:38:51.968Z,99.90
2023-05-21T22:43:54.429Z,99.90
2023-05-21T22:48:57.161Z,99.90
2023-05-21T22:54:00.678Z,99.90
2023-05-21T22:59:03.267Z,99.90
2023-05-21T23:04:05.935Z,99.90
2023-05-21T23:09:09.673Z,99.90
2023-05-21T23:14:14.686Z,99.90
2023-05-21T23:19:17.490Z,99.90
2023-05-21T23:24:20.065Z,99.90
2023-05-21T23:29:23.197Z,99.90
2023-05-21T23:34:25.943Z,99.90
2023-05-21T23:39:29.201Z,99.90
2023-05-21T23:44:31.985Z,99.90
2023-05-21T23:49:36.576Z,99.90
2023-05-21T23:54:42.438Z,99.90
2023-05-21T23:59:45.220Z,99.90
